createdAt,value
2016-01-22T00:00:13.217Z,0
2016-01-22T00:01:13.181Z,0
2016-01-22T00:02:13.176Z,0
2016-01-22T00:03:13.156Z,0
2016-01-22T00:04:13.163Z,0
2016-01-22T00:05:13.162Z,0
2016-01-22T09:03:08.652Z,4800
2016-01-22T09:04:08.421Z,4860
2016-01-22T09:05:08.409Z,4928
2016-01-22T09:06:08.382Z,4976
2016-01-22T09:07:08.404Z,5000
2016-01-22T09:08:08.378Z,5120
2016-01-22T09:09:08.350Z,5076
2016-01-22T09:10:08.353Z,5096
2016-01-22T09:11:08.341Z,5068
2016-01-22T09:12:08.361Z,4996
2016-01-22T09:13:08.354Z,4756
2016-01-22T09:14:08.311Z,4756
2016-01-22T09:15:08.332Z,4768
2016-01-22T09:16:08.324Z,5144
2016-01-22T09:17:08.343Z,5496
2016-01-22T09:18:08.288Z,5876
2016-01-22T09:19:08.300Z,5784
2016-01-22T09:20:08.272Z,5632
2016-01-22T09:21:08.245Z,5476
2016-01-22T09:22:08.249Z,5756
2016-01-22T09:23:49.852Z,5752
2016-01-22T09:24:49.859Z,5704
2016-01-22T09:25:49.847Z,5568
2016-01-22T09:26:49.820Z,5612
2016-01-22T09:27:49.840Z,5632
2016-01-22T09:28:49.814Z,5416
2016-01-22T09:29:49.788Z,5424
2016-01-22T09:30:49.811Z,5528
2016-01-22T09:31:49.800Z,5560
2016-01-22T09:32:49.790Z,5392
2016-01-22T09:33:49.778Z,5520
2016-01-22T09:34:49.787Z,5528
2016-01-22T09:35:49.762Z,5540
2016-01-22T09:36:49.765Z,5516
2016-01-22T09:37:49.769Z,5648
2016-01-22T09:38:49.757Z,5668
2016-01-22T09:39:49.748Z,5696
2016-01-22T09:40:49.722Z,5820
2016-01-22T09:41:49.732Z,5820
2016-01-22T09:42:49.720Z,5844
2016-01-22T09:43:49.709Z,5844
2016-01-22T09:44:49.711Z,5844
2016-01-22T09:45:49.699Z,5792
2016-01-22T09:46:49.690Z,5756
2016-01-22T09:47:49.698Z,5788
2016-01-22T09:48:49.688Z,5776
2016-01-22T09:49:49.678Z,5840
2016-01-22T09:50:49.666Z,5860
2016-01-22T09:51:49.670Z,6020
2016-01-22T09:52:49.662Z,5972
2016-01-22T09:53:49.714Z,6032
2016-01-22T09:54:49.670Z,5928
2016-01-22T09:55:49.645Z,6040
2016-01-22T09:56:49.632Z,5964
2016-01-22T09:57:49.637Z,5960
2016-01-22T09:58:49.642Z,6060
2016-01-22T09:59:49.618Z,6076
2016-01-22T10:00:49.622Z,6020
2016-01-22T10:01:49.626Z,6060
2016-01-22T10:02:49.613Z,6088
2016-01-22T10:03:49.604Z,6096
2016-01-22T10:04:49.579Z,6172
2016-01-22T10:05:49.598Z,6180
2016-01-22T10:06:49.577Z,6188
2016-01-22T10:07:49.579Z,6188
2016-01-22T10:08:49.567Z,6200
2016-01-22T10:09:49.573Z,6112
2016-01-22T10:10:49.550Z,6244
2016-01-22T10:11:49.556Z,6276
2016-01-22T10:12:49.543Z,6276
2016-01-22T10:13:49.547Z,6248
2016-01-22T10:14:49.537Z,6264
2016-01-22T10:15:49.513Z,6240
2016-01-22T10:16:49.518Z,6284
2016-01-22T10:17:49.568Z,6268
2016-01-22T10:18:49.525Z,6260
2016-01-22T10:19:49.529Z,6220
2016-01-22T10:20:49.502Z,6280
2016-01-22T10:21:49.511Z,6280
2016-01-22T10:22:49.498Z,6328
2016-01-22T10:23:49.486Z,6252
2016-01-22T10:24:49.492Z,6276
2016-01-22T10:25:49.465Z,6276
2016-01-22T10:26:49.468Z,6292
2016-01-22T10:27:49.474Z,6300
2016-01-22T10:28:49.481Z,6304
2016-01-22T10:29:49.894Z,6296
2016-01-22T10:30:49.570Z,6312
2016-01-22T10:31:49.448Z,6288
2016-01-22T10:32:49.467Z,6296
2016-01-22T10:33:49.443Z,6280
2016-01-22T10:34:49.430Z,6300
2016-01-22T10:35:49.419Z,6268
2016-01-22T10:36:49.441Z,6292
2016-01-22T10:37:49.413Z,6300
2016-01-22T10:38:49.419Z,6292
2016-01-22T10:39:49.407Z,6288
2016-01-22T10:40:49.396Z,6288
2016-01-22T10:41:49.400Z,6264
2016-01-22T10:42:49.387Z,6256
2016-01-22T10:43:49.377Z,6264
2016-01-22T10:44:49.356Z,6252
2016-01-22T10:45:49.392Z,6256
2016-01-22T10:46:49.379Z,6240
2016-01-22T10:47:49.369Z,6248
2016-01-22T10:48:49.373Z,6224
2016-01-22T10:49:49.362Z,6204
2016-01-22T10:50:49.351Z,6224
2016-01-22T10:51:49.358Z,6240
2016-01-22T10:52:49.332Z,6184
2016-01-22T10:53:49.309Z,6176
2016-01-22T10:54:49.340Z,6176
2016-01-22T10:55:49.316Z,6172
2016-01-22T10:56:49.304Z,6172
2016-01-22T10:57:49.324Z,6144
2016-01-22T10:58:49.313Z,6148
2016-01-22T10:59:49.301Z,6148
2016-01-22T11:00:49.290Z,6172
2016-01-22T11:01:49.311Z,6140
2016-01-22T11:02:49.314Z,6128
2016-01-22T11:03:49.320Z,6128
2016-01-22T11:04:49.300Z,6132
2016-01-22T11:05:50.679Z,6100
2016-01-22T11:06:49.276Z,6116
2016-01-22T11:07:49.294Z,6076
2016-01-22T11:08:49.240Z,6080
2016-01-22T11:09:49.242Z,6096
2016-01-22T11:10:49.243Z,6056
2016-01-22T11:11:49.325Z,6080
2016-01-22T11:12:49.391Z,6044
2016-01-22T11:13:49.221Z,6044
2016-01-22T11:14:49.349Z,6028
2016-01-22T11:15:49.228Z,6040
2016-01-22T11:16:49.204Z,6076
2016-01-22T11:17:49.195Z,6076
2016-01-22T11:18:49.204Z,6048
2016-01-22T11:19:49.207Z,6028
2016-01-22T11:20:49.181Z,6012
2016-01-22T11:21:49.186Z,6048
2016-01-22T11:22:49.237Z,6044
2016-01-22T11:23:49.196Z,6024
2016-01-22T11:24:49.168Z,6024
2016-01-22T11:25:49.234Z,6024
2016-01-22T11:26:49.191Z,6020
2016-01-22T11:27:49.167Z,6012
2016-01-22T11:28:49.157Z,6036
2016-01-22T11:29:49.146Z,6040
2016-01-22T11:30:49.133Z,6008
2016-01-22T11:31:49.152Z,5996
2016-01-22T11:32:49.156Z,6020
2016-01-22T11:33:49.129Z,6028
2016-01-22T11:34:49.132Z,6000
2016-01-22T11:35:49.135Z,5980
2016-01-22T11:36:49.108Z,5972
2016-01-22T11:37:49.145Z,5984
2016-01-22T11:38:49.119Z,5972
2016-01-22T11:39:49.641Z,5952
2016-01-22T11:40:49.130Z,5940
2016-01-22T11:41:49.102Z,5900
2016-01-22T11:42:49.121Z,5892
2016-01-22T11:43:49.093Z,5916
2016-01-22T11:44:48.928Z,5900
2016-01-22T11:45:49.073Z,5824
2016-01-22T11:46:49.076Z,5848
2016-01-22T11:47:49.066Z,5844
2016-01-22T11:48:49.086Z,5828
2016-01-22T11:49:49.047Z,5808
2016-01-22T11:50:49.050Z,5848
2016-01-22T11:51:49.054Z,5868
2016-01-22T11:52:49.091Z,5804
2016-01-22T11:53:49.063Z,5784
2016-01-22T11:54:49.022Z,5848
2016-01-22T11:55:49.043Z,5880
2016-01-22T11:56:49.047Z,5852
2016-01-22T11:57:49.034Z,5872
2016-01-22T11:58:49.040Z,5868
2016-01-22T11:59:49.030Z,5852
2016-01-22T12:00:49.003Z,5824
2016-01-22T12:01:49.023Z,5824
2016-01-22T12:02:49.011Z,5804
2016-01-22T12:03:49.001Z,5788
2016-01-22T12:04:49.004Z,5792
2016-01-22T12:05:48.993Z,5760
2016-01-22T12:06:48.997Z,5736
2016-01-22T12:07:48.984Z,5680
2016-01-22T12:08:49.162Z,5592
2016-01-22T12:09:48.978Z,5664
2016-01-22T12:10:49.002Z,5712
2016-01-22T12:11:48.974Z,5692
2016-01-22T12:12:48.964Z,5668
2016-01-22T12:13:48.952Z,5680
2016-01-22T12:14:48.972Z,5672
2016-01-22T12:15:48.960Z,5660
2016-01-22T12:16:48.949Z,5640
2016-01-22T12:17:48.939Z,5620
2016-01-22T12:18:48.944Z,5612
2016-01-22T12:19:49.005Z,5580
2016-01-22T12:20:48.949Z,5572
2016-01-22T12:21:48.940Z,5576
2016-01-22T12:22:48.931Z,5572
2016-01-22T12:23:48.922Z,5552
2016-01-22T12:24:49.334Z,5520
2016-01-22T12:25:48.963Z,5516
2016-01-22T12:26:48.919Z,5504
2016-01-22T12:27:48.907Z,5488
2016-01-22T12:28:48.911Z,5488
2016-01-22T12:29:49.447Z,5472
2016-01-22T12:30:48.905Z,5452
2016-01-22T12:31:48.879Z,5428
2016-01-22T12:32:48.898Z,5424
2016-01-22T12:33:49.261Z,5420
2016-01-22T12:34:48.905Z,5396
2016-01-22T12:35:48.913Z,5384
2016-01-22T12:36:48.919Z,5376
2016-01-22T12:37:48.722Z,5364
2016-01-22T12:38:48.851Z,5332
2016-01-22T12:39:48.855Z,5296
2016-01-22T12:40:48.843Z,5292
2016-01-22T12:41:48.861Z,5292
2016-01-22T12:42:49.229Z,5236
2016-01-22T12:43:48.857Z,5228
2016-01-22T12:44:48.910Z,5196
2016-01-22T12:45:48.868Z,5184
2016-01-22T12:46:48.841Z,5172
2016-01-22T12:47:48.862Z,5148
2016-01-22T12:48:48.833Z,5144
2016-01-22T12:49:48.700Z,5136
2016-01-22T12:50:48.836Z,5112
2016-01-22T12:51:48.810Z,5096
2016-01-22T12:52:48.786Z,5088
2016-01-22T12:53:48.775Z,5068
2016-01-22T12:54:48.780Z,5068
2016-01-22T12:55:48.741Z,5044
2016-01-22T12:56:48.739Z,5012
2016-01-22T12:57:48.714Z,5016
2016-01-22T12:58:48.713Z,5004
2016-01-22T12:59:48.715Z,4972
2016-01-22T13:00:49.168Z,4976
2016-01-22T13:01:49.295Z,4976
2016-01-22T13:02:49.069Z,4928
2016-01-22T13:03:49.105Z,4912
2016-01-22T13:04:48.919Z,4884
2016-01-22T13:05:49.062Z,4876
2016-01-22T13:06:49.084Z,4856
2016-01-22T13:07:49.148Z,4828
2016-01-22T13:08:49.245Z,4812
2016-01-22T13:09:49.233Z,4796
2016-01-22T13:10:48.987Z,4776
2016-01-22T13:11:49.136Z,4780
2016-01-22T13:12:49.108Z,4760
2016-01-22T13:13:48.630Z,4736
2016-01-22T13:14:48.634Z,4736
2016-01-22T13:15:49.247Z,4716
2016-01-22T13:16:48.626Z,4680
2016-01-22T13:17:48.631Z,4664
2016-01-22T13:18:48.618Z,4652
2016-01-22T13:19:48.621Z,4632
2016-01-22T13:20:48.640Z,4612
2016-01-22T13:21:48.624Z,4588
2016-01-22T13:22:48.613Z,4576
2016-01-22T13:23:48.617Z,4560
2016-01-22T13:24:48.592Z,4540
2016-01-22T13:25:48.595Z,4520
2016-01-22T13:26:48.943Z,4508
2016-01-22T13:27:48.574Z,4492
2016-01-22T13:28:48.687Z,4472
2016-01-22T13:29:48.597Z,4440
2016-01-22T13:30:48.428Z,4416
2016-01-22T13:31:48.574Z,4392
2016-01-22T13:32:48.563Z,4380
2016-01-22T13:33:47.691Z,4368
2016-01-22T13:34:48.587Z,4348
2016-01-22T13:35:48.576Z,4324
2016-01-22T13:36:49.457Z,4308
2016-01-22T13:37:48.557Z,4300
2016-01-22T13:38:48.561Z,4276
2016-01-22T13:39:48.549Z,4276
2016-01-22T13:40:48.553Z,4240
2016-01-22T13:41:48.540Z,4224
2016-01-22T13:42:48.592Z,4196
2016-01-22T13:43:48.567Z,4180
2016-01-22T13:44:49.024Z,4164
2016-01-22T13:45:48.561Z,4136
2016-01-22T13:46:48.548Z,4120
2016-01-22T13:47:48.507Z,4096
2016-01-22T13:48:48.526Z,4052
2016-01-22T13:49:48.515Z,4060
2016-01-22T13:50:48.511Z,4048
2016-01-22T13:51:48.518Z,4016
2016-01-22T13:52:48.710Z,3992
2016-01-22T13:53:48.510Z,3984
2016-01-22T13:54:48.501Z,3968
2016-01-22T13:55:48.504Z,3928
2016-01-22T13:56:48.651Z,3900
2016-01-22T13:57:48.500Z,3876
2016-01-22T13:58:48.488Z,3852
2016-01-22T13:59:48.493Z,3828
2016-01-22T14:00:48.465Z,3808
2016-01-22T14:01:48.456Z,3780
2016-01-22T14:02:48.460Z,3764
2016-01-22T14:03:48.463Z,3740
2016-01-22T14:04:48.467Z,3716
2016-01-22T14:05:48.455Z,3692
2016-01-22T14:06:48.459Z,3668
2016-01-22T14:07:48.434Z,3664
2016-01-22T14:08:48.439Z,3620
2016-01-22T14:09:48.426Z,3600
2016-01-22T14:10:48.444Z,3572
2016-01-22T14:11:48.434Z,3556
2016-01-22T14:12:48.432Z,3536
2016-01-22T14:13:48.420Z,3508
2016-01-22T14:14:48.423Z,3484
2016-01-22T14:15:48.429Z,3460
2016-01-22T14:16:48.432Z,3440
2016-01-22T14:17:48.406Z,3412
2016-01-22T14:18:48.394Z,3388
2016-01-22T14:19:48.397Z,3360
2016-01-22T14:20:48.431Z,3324
2016-01-22T14:21:48.392Z,3304
2016-01-22T14:22:48.231Z,3276
2016-01-22T14:23:48.391Z,3240
2016-01-22T14:24:48.396Z,3216
2016-01-22T14:25:48.399Z,3172
2016-01-22T14:26:48.450Z,3132
2016-01-22T14:27:48.375Z,3104
2016-01-22T14:28:48.381Z,3080
2016-01-22T14:29:48.385Z,3056
2016-01-22T14:30:48.389Z,3032
2016-01-22T14:31:48.423Z,3012
2016-01-22T14:32:48.352Z,2992
2016-01-22T14:33:48.342Z,2972
2016-01-22T14:34:48.895Z,2956
2016-01-22T14:35:49.320Z,2936
2016-01-22T14:36:48.761Z,2920
2016-01-22T14:37:49.016Z,2900
2016-01-22T14:38:49.132Z,2880
2016-01-22T14:39:48.793Z,2856
2016-01-22T14:40:48.718Z,2844
2016-01-22T14:41:48.895Z,2832
2016-01-22T14:42:48.962Z,2792
2016-01-22T14:43:49.153Z,2768
2016-01-22T14:44:49.696Z,2744
2016-01-22T14:45:48.723Z,2712
2016-01-22T14:46:48.728Z,2676
2016-01-22T14:47:48.703Z,2672
2016-01-22T14:48:48.800Z,2648
2016-01-22T14:49:48.867Z,2620
2016-01-22T14:50:48.809Z,2596
2016-01-22T14:51:48.783Z,2568
2016-01-22T14:52:48.782Z,2528
2016-01-22T14:53:48.722Z,2512
2016-01-22T14:54:49.011Z,2480
2016-01-22T14:55:48.966Z,2452
2016-01-22T14:56:48.595Z,2428
2016-01-22T14:57:48.663Z,2400
2016-01-22T14:58:48.839Z,2372
2016-01-22T14:59:48.202Z,2344
2016-01-22T15:00:48.206Z,2316
2016-01-22T15:01:48.695Z,2288
2016-01-22T15:02:48.449Z,2260
2016-01-22T15:03:48.189Z,2228
2016-01-22T15:04:48.195Z,2200
2016-01-22T15:05:48.181Z,2176
2016-01-22T15:06:48.201Z,2112
2016-01-22T15:07:48.220Z,2048
2016-01-22T15:08:48.177Z,1992
2016-01-22T15:09:47.852Z,1980
2016-01-22T15:10:48.172Z,1948
2016-01-22T15:11:48.175Z,1904
2016-01-22T15:12:48.166Z,1860
2016-01-22T15:13:48.157Z,1784
2016-01-22T15:14:48.136Z,1660
2016-01-22T15:15:48.154Z,1552
2016-01-22T15:16:48.205Z,1488
2016-01-22T15:17:48.147Z,1436
2016-01-22T15:18:48.134Z,1392
2016-01-22T15:19:48.170Z,1348
2016-01-22T15:20:48.147Z,1300
2016-01-22T15:21:48.369Z,1248
2016-01-22T15:22:48.185Z,1200
2016-01-22T15:23:48.110Z,1156
2016-01-22T15:24:48.209Z,1116
2016-01-22T15:25:48.119Z,1076
2016-01-22T15:26:48.360Z,1036
2016-01-22T15:27:48.287Z,992
2016-01-22T15:28:48.356Z,952
2016-01-22T15:29:48.111Z,916
2016-01-22T15:30:48.069Z,884
2016-01-22T15:31:48.072Z,848
2016-01-22T15:32:48.060Z,808
2016-01-22T15:33:48.064Z,776
2016-01-22T15:34:48.068Z,740
2016-01-22T15:35:48.071Z,708
2016-01-22T15:36:48.029Z,676
2016-01-22T15:37:48.033Z,648
2016-01-22T15:38:48.036Z,620
2016-01-22T15:39:48.024Z,592
2016-01-22T15:40:48.013Z,564
2016-01-22T15:41:48.017Z,540
2016-01-22T15:42:48.006Z,520
2016-01-22T15:43:48.010Z,496
2016-01-22T15:44:48.123Z,480
2016-01-22T15:45:48.019Z,456
2016-01-22T15:46:47.991Z,436
2016-01-22T15:47:48.014Z,412
2016-01-22T15:48:47.971Z,392
2016-01-22T15:49:48.005Z,372
2016-01-22T15:50:47.806Z,356
2016-01-22T15:51:47.983Z,336
2016-01-22T15:52:47.944Z,320
2016-01-22T15:53:47.979Z,300
2016-01-22T15:54:48.187Z,284
2016-01-22T15:55:47.940Z,272
2016-01-22T15:56:47.965Z,256
2016-01-22T15:57:47.939Z,236
2016-01-22T15:58:47.193Z,220
2016-01-22T15:59:47.917Z,204
2016-01-22T16:00:47.920Z,188
2016-01-22T16:01:47.907Z,176
2016-01-22T16:02:47.928Z,164
2016-01-22T16:03:47.904Z,148
2016-01-22T16:04:47.908Z,136
2016-01-22T16:05:47.895Z,124
2016-01-22T16:06:47.883Z,112
2016-01-22T16:07:47.904Z,104
2016-01-22T16:08:48.049Z,92
2016-01-22T16:09:47.868Z,84
2016-01-22T16:10:47.854Z,76
2016-01-22T16:11:47.858Z,68
2016-01-22T16:12:47.846Z,60
2016-01-22T16:13:47.852Z,52
2016-01-22T16:14:47.887Z,44
2016-01-22T16:15:47.674Z,40
2016-01-22T16:16:47.835Z,36
2016-01-22T16:17:47.839Z,32
2016-01-22T16:18:47.797Z,24
2016-01-22T16:19:47.817Z,24
2016-01-22T16:20:47.803Z,20
2016-01-22T16:21:47.793Z,16
2016-01-22T16:22:47.815Z,12
2016-01-22T16:23:47.771Z,12
2016-01-22T16:24:47.760Z,12
2016-01-22T16:25:47.764Z,8
2016-01-22T16:26:47.753Z,8
2016-01-22T16:27:48.134Z,8
2016-01-22T16:28:47.780Z,4
2016-01-22T16:29:47.785Z,8
2016-01-22T16:30:47.774Z,4
2016-01-22T16:31:47.732Z,4
2016-01-22T16:32:47.737Z,0
2016-01-22T16:33:47.725Z,4
2016-01-22T16:34:47.728Z,4
2016-01-22T16:35:47.715Z,4
2016-01-22T16:36:47.704Z,4
2016-01-22T16:37:47.692Z,4
2016-01-22T16:38:47.713Z,0
2016-01-22T16:39:47.701Z,0
2016-01-22T16:40:47.533Z,0
2016-01-22T16:41:47.694Z,0
2016-01-22T16:42:47.651Z,0
2016-01-22T16:43:47.671Z,0
2016-01-22T16:44:47.706Z,0
2016-01-22T16:45:47.646Z,0
2016-01-22T16:46:47.666Z,0
2016-01-22T16:47:47.638Z,0
2016-01-22T16:48:48.096Z,0
2016-01-22T16:49:47.679Z,0
2016-01-22T16:50:47.621Z,0
2016-01-22T16:51:47.612Z,0
2016-01-22T16:52:47.460Z,0
2016-01-22T16:53:47.638Z,0
2016-01-22T16:54:47.610Z,0
2016-01-22T16:55:47.630Z,0
2016-01-22T16:56:48.121Z,0
2016-01-22T16:57:47.577Z,0
2016-01-22T16:58:47.582Z,0
2016-01-22T16:59:47.585Z,0
2016-01-22T17:00:47.573Z,0
2016-01-22T17:01:47.690Z,0
2016-01-22T17:02:47.381Z,0
2016-01-22T17:03:47.540Z,0
2016-01-22T17:04:47.701Z,0
2016-01-22T17:05:47.768Z,0
2016-01-22T17:06:47.524Z,0
2016-01-22T17:07:47.514Z,0
2016-01-22T17:08:47.517Z,0
2016-01-22T17:09:47.508Z,0
2016-01-22T17:10:47.496Z,0
2016-01-22T17:11:47.485Z,0
2016-01-22T17:12:47.475Z,0
2016-01-22T17:13:47.479Z,0
2016-01-22T17:14:47.467Z,0
2016-01-22T17:15:47.456Z,0
2016-01-22T17:16:47.490Z,0
2016-01-22T17:17:47.435Z,0
2016-01-22T17:18:47.441Z,0
2016-01-22T17:19:47.428Z,0
2016-01-22T17:20:47.432Z,0
2016-01-22T17:21:47.408Z,0
2016-01-22T17:22:47.427Z,0
2016-01-22T17:23:47.409Z,0
2016-01-22T17:24:47.413Z,0
2016-01-22T17:25:47.401Z,0
2016-01-22T17:26:47.405Z,0
2016-01-22T17:27:47.427Z,0
2016-01-22T17:28:47.368Z,0
2016-01-22T17:29:47.357Z,0
2016-01-22T17:30:47.345Z,0
2016-01-22T17:31:47.351Z,0
2016-01-22T17:32:47.356Z,0
2016-01-22T17:33:47.346Z,0
2016-01-22T17:34:47.396Z,0
2016-01-22T17:35:47.315Z,0
2016-01-22T17:36:47.303Z,0
2016-01-22T17:37:47.307Z,0
2016-01-22T17:38:47.327Z,0
2016-01-22T17:39:47.301Z,0
2016-01-22T17:40:47.289Z,0
2016-01-22T17:41:47.278Z,0
2016-01-22T17:42:47.282Z,0
2016-01-22T17:43:47.474Z,0
2016-01-22T17:44:47.276Z,0
2016-01-22T17:45:47.357Z,0
2016-01-22T17:46:47.254Z,0
2016-01-22T17:47:47.261Z,0
2016-01-22T17:48:47.235Z,0
2016-01-22T17:49:47.222Z,0
2016-01-22T17:50:47.243Z,0
2016-01-22T17:51:47.214Z,0
2016-01-22T17:52:47.220Z,0
2016-01-22T17:53:47.213Z,0
2016-01-22T17:54:47.249Z,0
2016-01-22T17:55:47.189Z,0
2016-01-22T17:56:47.193Z,0
2016-01-22T17:57:47.181Z,0
2016-01-22T17:58:47.169Z,0
2016-01-22T17:59:47.157Z,0
2016-01-22T18:00:47.179Z,0
2016-01-22T18:01:47.150Z,0
2016-01-22T18:02:47.153Z,0
2016-01-22T18:03:47.141Z,0
2016-01-22T18:04:47.177Z,0
2016-01-22T18:05:47.120Z,0
2016-01-22T18:06:47.452Z,0
2016-01-22T18:07:47.112Z,0
2016-01-22T18:08:47.116Z,0
2016-01-22T18:09:47.104Z,0
2016-01-22T18:10:47.090Z,0
2016-01-22T18:11:47.080Z,0
2016-01-22T18:12:47.114Z,0
2016-01-22T18:13:47.071Z,0
2016-01-22T18:14:47.075Z,0
2016-01-22T18:15:47.047Z,0
2016-01-22T18:16:47.084Z,0
2016-01-22T18:17:47.058Z,0
2016-01-22T18:18:47.047Z,0
2016-01-22T18:19:47.034Z,0
2016-01-22T18:20:47.038Z,0
2016-01-22T18:21:47.041Z,0
2016-01-22T18:22:47.017Z,0
2016-01-22T18:23:47.004Z,0
2016-01-22T18:24:47.184Z,0
2016-01-22T18:25:47.050Z,0
2016-01-22T18:26:47.068Z,0
2016-01-22T18:27:46.978Z,0
2016-01-22T18:28:46.981Z,0
2016-01-22T18:29:46.969Z,0
2016-01-22T18:30:46.973Z,0
2016-01-22T18:31:46.977Z,0
2016-01-22T18:32:46.981Z,0
2016-01-22T18:33:46.986Z,0
2016-01-22T18:34:46.928Z,0
2016-01-22T18:35:46.916Z,0
2016-01-22T18:36:46.968Z,0
2016-01-22T18:37:46.910Z,0
2016-01-22T18:38:46.914Z,0
2016-01-22T18:39:46.904Z,0
2016-01-22T18:40:46.923Z,0
2016-01-22T18:41:46.912Z,0
2016-01-22T18:42:46.900Z,0
2016-01-22T18:43:46.872Z,0
2016-01-22T18:44:46.892Z,0
2016-01-22T18:45:46.897Z,0
2016-01-22T18:46:46.870Z,0
2016-01-22T18:47:46.906Z,0
2016-01-22T18:48:46.894Z,0
2016-01-22T18:49:46.819Z,0
2016-01-22T18:50:46.841Z,0
2016-01-22T18:51:46.829Z,0
2016-01-22T18:52:46.831Z,0
2016-01-22T18:53:46.806Z,0
2016-01-22T18:54:46.839Z,0
2016-01-22T18:55:46.796Z,0
2016-01-22T18:56:46.815Z,0
2016-01-22T18:57:46.789Z,0
2016-01-22T18:58:46.763Z,0
2016-01-22T18:59:46.798Z,0
2016-01-22T19:00:46.770Z,0
2016-01-22T19:01:46.762Z,0
2016-01-22T19:02:46.765Z,0
2016-01-22T19:03:46.770Z,0
2016-01-22T19:04:46.774Z,0
2016-01-22T19:05:46.796Z,0
2016-01-22T19:06:46.877Z,0
2016-01-22T19:07:46.709Z,0
2016-01-22T19:08:46.729Z,0
2016-01-22T19:09:46.717Z,0
2016-01-22T19:10:46.739Z,0
2016-01-22T19:11:46.680Z,0
2016-01-22T19:12:46.684Z,0
2016-01-22T19:13:46.673Z,0
2016-01-22T19:14:46.662Z,0
2016-01-22T19:15:46.664Z,0
2016-01-22T19:16:46.640Z,0
2016-01-22T19:17:46.658Z,0
2016-01-22T19:18:46.631Z,0
2016-01-22T19:19:47.273Z,0
2016-01-22T19:20:46.654Z,0
2016-01-22T19:21:46.658Z,0
2016-01-22T19:22:46.584Z,0
2016-01-22T19:23:46.605Z,0
2016-01-22T19:24:46.593Z,0
2016-01-22T19:25:46.568Z,0
2016-01-22T19:26:46.445Z,0
2016-01-22T19:27:46.557Z,0
2016-01-22T19:28:46.577Z,0
2016-01-22T19:29:46.581Z,0
2016-01-22T19:30:46.599Z,0
2016-01-22T19:31:46.636Z,0
2016-01-22T19:32:46.532Z,0
2016-01-22T19:33:46.520Z,0
2016-01-22T19:34:46.539Z,0
2016-01-22T19:35:46.514Z,0
2016-01-22T19:36:46.519Z,0
2016-01-22T19:37:46.491Z,0
2016-01-22T19:38:46.479Z,0
2016-01-22T19:39:46.483Z,0
2016-01-22T19:40:46.299Z,0
2016-01-22T19:41:46.477Z,0
2016-01-22T19:42:46.451Z,0
2016-01-22T19:43:46.829Z,0
2016-01-22T19:44:46.442Z,0
2016-01-22T19:45:46.444Z,0
2016-01-22T19:46:46.462Z,0
2016-01-22T19:47:46.421Z,0
2016-01-22T19:48:46.768Z,0
2016-01-22T19:49:46.415Z,0
2016-01-22T19:50:46.387Z,0
2016-01-22T19:51:46.407Z,0
2016-01-22T19:52:46.380Z,0
2016-01-22T19:53:46.569Z,0
2016-01-22T19:54:46.371Z,0
2016-01-22T19:55:46.411Z,0
2016-01-22T19:56:46.354Z,0
2016-01-22T19:57:46.357Z,0
2016-01-22T19:58:46.331Z,0
2016-01-22T19:59:46.318Z,0
2016-01-22T20:00:46.306Z,0
2016-01-22T20:01:46.903Z,0
2016-01-22T20:02:46.313Z,0
2016-01-22T20:03:46.303Z,0
2016-01-22T20:04:46.275Z,0
2016-01-22T20:05:46.310Z,0
2016-01-22T20:06:46.269Z,0
2016-01-22T20:07:46.273Z,0
2016-01-22T20:08:46.291Z,0
2016-01-22T20:09:46.389Z,0
2016-01-22T20:10:46.283Z,0
2016-01-22T20:11:46.226Z,0
2016-01-22T20:12:46.230Z,0
2016-01-22T20:13:46.217Z,0
2016-01-22T20:14:46.208Z,0
2016-01-22T20:15:46.243Z,0
2016-01-22T20:16:46.245Z,0
2016-01-22T20:17:46.187Z,0
2016-01-22T20:18:46.192Z,0
2016-01-22T20:19:46.572Z,0
2016-01-22T20:20:46.184Z,0
2016-01-22T20:21:46.157Z,0
2016-01-22T20:22:46.161Z,0
2016-01-22T20:23:46.149Z,0
2016-01-22T20:24:46.140Z,0
2016-01-22T20:25:46.151Z,0
2016-01-22T20:26:46.124Z,0
2016-01-22T20:27:46.130Z,0
2016-01-22T20:28:46.119Z,0
2016-01-22T20:29:46.107Z,0
2016-01-22T20:30:46.110Z,0
2016-01-22T20:31:46.114Z,0
2016-01-22T20:32:46.071Z,0
2016-01-22T20:33:46.078Z,0
2016-01-22T20:34:46.084Z,0
2016-01-22T20:35:46.105Z,0
2016-01-22T20:36:46.061Z,0
2016-01-22T20:37:46.033Z,0
2016-01-22T20:38:46.067Z,0
2016-01-22T20:39:46.038Z,0
2016-01-22T20:40:46.043Z,0
2016-01-22T20:41:46.016Z,0
2016-01-22T20:42:46.021Z,0
2016-01-22T20:43:46.024Z,0
2016-01-22T20:44:45.997Z,0
2016-01-22T20:45:45.986Z,0
2016-01-22T20:46:46.004Z,0
2016-01-22T20:47:45.978Z,0
2016-01-22T20:48:45.983Z,0
2016-01-22T20:49:45.971Z,0
2016-01-22T20:50:45.961Z,0
2016-01-22T20:51:45.965Z,0
2016-01-22T20:52:45.953Z,0
2016-01-22T20:53:46.007Z,0
2016-01-22T20:54:45.933Z,0
2016-01-22T20:55:45.924Z,0
2016-01-22T20:56:45.927Z,0
2016-01-22T20:57:45.900Z,0
2016-01-22T20:58:45.965Z,0
2016-01-22T20:59:45.909Z,0
2016-01-22T21:00:45.928Z,0
2016-01-22T21:01:45.885Z,0
2016-01-22T21:02:46.343Z,0
2016-01-22T21:03:45.880Z,0
2016-01-22T21:04:45.882Z,0
2016-01-22T21:05:45.870Z,0
2016-01-22T21:06:45.843Z,0
2016-01-22T21:07:45.847Z,0
2016-01-22T21:08:45.851Z,0
2016-01-22T21:09:45.854Z,0
2016-01-22T21:10:45.858Z,0
2016-01-22T21:11:45.814Z,0
2016-01-22T21:12:45.818Z,0
2016-01-22T21:13:45.793Z,0
2016-01-22T21:14:45.796Z,0
2016-01-22T21:15:45.784Z,0
2016-01-22T21:16:45.804Z,0
2016-01-22T21:17:45.605Z,0
2016-01-22T21:18:45.765Z,0
2016-01-22T21:19:45.769Z,0
2016-01-22T21:20:45.790Z,0
2016-01-22T21:21:46.169Z,0
2016-01-22T21:22:45.720Z,0
2016-01-22T21:23:45.756Z,0
2016-01-22T21:24:45.730Z,0
2016-01-22T21:25:45.703Z,0
2016-01-22T21:26:45.709Z,0
2016-01-22T21:27:45.699Z,0
2016-01-22T21:28:45.718Z,0
2016-01-22T21:29:45.849Z,0
2016-01-22T21:30:45.696Z,0
2016-01-22T21:31:45.651Z,0
2016-01-22T21:32:45.669Z,0
2016-01-22T21:33:45.642Z,0
2016-01-22T21:34:45.661Z,0
2016-01-22T21:35:45.635Z,0
2016-01-22T21:36:45.639Z,0
2016-01-22T21:37:45.628Z,0
2016-01-22T21:38:45.631Z,0
2016-01-22T21:39:45.621Z,0
2016-01-22T21:40:45.611Z,0
2016-01-22T21:41:45.648Z,0
2016-01-22T21:42:45.605Z,0
2016-01-22T21:43:45.577Z,0
2016-01-22T21:44:45.597Z,0
2016-01-22T21:45:45.569Z,0
2016-01-22T21:46:45.556Z,0
2016-01-22T21:47:45.576Z,0
2016-01-22T21:48:45.579Z,0
2016-01-22T21:49:45.553Z,0
2016-01-22T21:50:45.545Z,0
2016-01-22T21:51:45.533Z,0
2016-01-22T21:52:45.521Z,0
2016-01-22T21:53:45.510Z,0
2016-01-22T21:54:45.544Z,0
2016-01-22T21:55:45.504Z,0
2016-01-22T21:56:45.523Z,0
2016-01-22T21:57:45.467Z,0
2016-01-22T21:58:45.457Z,0
2016-01-22T21:59:45.438Z,0
2016-01-22T22:00:45.426Z,0
2016-01-22T22:01:45.415Z,0
2016-01-22T22:02:45.223Z,0
2016-01-22T22:03:45.384Z,0
2016-01-22T22:04:45.351Z,0
2016-01-22T22:05:45.337Z,0
2016-01-22T22:06:45.334Z,0
2016-01-22T22:07:45.321Z,0
2016-01-22T22:08:45.323Z,0
2016-01-22T22:09:45.325Z,0
2016-01-22T22:10:45.282Z,0
2016-01-22T22:11:45.316Z,0
2016-01-22T22:12:45.272Z,0
2016-01-22T22:13:45.277Z,0
2016-01-22T22:14:45.248Z,0
2016-01-22T22:15:45.267Z,0
2016-01-22T22:16:45.285Z,0
2016-01-22T22:17:45.258Z,0
2016-01-22T22:18:45.229Z,0
2016-01-22T22:19:45.079Z,0
2016-01-22T22:20:45.224Z,0
2016-01-22T22:21:45.212Z,0
2016-01-22T22:22:45.202Z,0
2016-01-22T22:23:45.048Z,0
2016-01-22T22:24:45.195Z,0
2016-01-22T22:25:45.187Z,0
2016-01-22T22:26:45.191Z,0
2016-01-22T22:27:45.196Z,0
2016-01-22T22:28:45.168Z,0
2016-01-22T22:29:45.157Z,0
2016-01-22T22:30:45.144Z,0
2016-01-22T22:31:45.475Z,0
2016-01-22T22:32:45.136Z,0
2016-01-22T22:33:45.406Z,0
2016-01-22T22:34:45.162Z,0
2016-01-22T22:35:45.122Z,0
2016-01-22T22:36:45.109Z,0
2016-01-22T22:37:45.096Z,0
2016-01-22T22:38:45.099Z,0
2016-01-22T22:39:45.134Z,0
2016-01-22T22:40:45.090Z,0
2016-01-22T22:41:45.110Z,0
2016-01-22T22:42:45.067Z,0
2016-01-22T22:43:45.070Z,0
2016-01-22T22:44:45.057Z,0
2016-01-22T22:45:45.042Z,0
2016-01-22T22:46:45.045Z,0
2016-01-22T22:47:45.033Z,0
2016-01-22T22:48:45.067Z,0
2016-01-22T22:49:45.180Z,0
2016-01-22T22:50:45.028Z,0
2016-01-22T22:51:45.031Z,0
2016-01-22T22:52:45.006Z,0
2016-01-22T22:53:45.011Z,0
2016-01-22T22:54:45.014Z,0
2016-01-22T22:55:45.049Z,0
2016-01-22T22:56:45.021Z,0
2016-01-22T22:57:44.991Z,0